Cincinnati, OH (45201)

6:21 PM EDT on March 26, 2017 (GMT -0400)
Norwood | | Change Station

Elev 620 ft 39.15 °N, 84.45 °W | Updated 40 seconds ago

Rain
Rain
61.3 °F
Feels Like 61.3 °F
N
3.0
Wind Variable Wind from SW

Today
High -- | Low -- °F
--% Chance of Precip.
Yesterday
High -- | Low -- °F
Precip. -- in
Pressure 29.91 in
Visibility 2.0 miles
Clouds Scattered Clouds 3300 ft
Mostly Cloudy 4600 ft
Overcast 9000 ft
Dew Point 56 °F
Humidity 83%
Rainfall 0.69 in
Snow Depth Not available.
7:31 AM 7:56 PM
Waning Crescent, 2% visible
SPECI KLUK 262213Z 25010G33KT 2SM R21L/3000VP6000FT +RA BR SCT033 BKN046 OVC090 15/14 A2991
Pressure 29.91 in
Visibility 2.0 miles
Clouds Scattered Clouds 3300 ft
Mostly Cloudy 4600 ft
Overcast 9000 ft
Dew Point 56 °F
Humidity 83%
Rainfall 0.69 in
Snow Depth Not available.
7:31 AM 7:56 PM
Waning Crescent, 2% visible
SPECI KLUK 262213Z 25010G33KT 2SM R21L/3000VP6000FT +RA BR SCT033 BKN046 OVC090 15/14 A2991

Get Severe Weather Alerts

Thanks for signing up!

Be on the lookout for a verification email in your inbox.

You'll start receiving the daily forecast at 8 AM.

×

10-Day Weather Forecast

Almanac

Astronomy

Mar. 26, 2017 Rise Set
Actual Time
Civil Twilight
Nautical Twilight
Astronomical Twilight
Moon
Length of Visible Light
Length of Day
Tomorrow will be .
, % of the Moon is Illuminated

Today's Extremes

State Highs State Lows

Community

WunderPhotos

Upload Photos

1,962,540 photos uploaded!

WunderBlog® & News

Nearby

Air Quality

  Air Quality AQ Index Pollutant
Not available.

Snow Depth

Station Depth Elevation

Earthquake Activity

City Distance Mag. Time & Date
Minimum magnitude displayed is 2.5.

Earthquake Activity

City Distance Mag. Time & Date
Minimum magnitude displayed is 2.5.

Coastal Water Temperatures

Place Temperature

Stations

Nearby Weather Stations

Station Location Temp. Windchill Dew Point Humidity Wind Precip. Elev Updated Type
                   

Watches & Warnings

There are currently no watches in effect.